Time;durP1;ratioP1;P1;durP2;ratioP2;P2;SDS_P1;SDS_P2;PMS_P1;PMS_P2;Temp;Humidity;BMP_temperature;BMP_pressure;BME280_temperature;BME280_humidity;BME280_pressure;Samples;Min_cycle;Max_cycle;Signal;HPM_P1;HPM_P2
2023/03/15 00:00:41;;;;;;;2.58;0.30;;;;;;;1.08;100.00;99917.34;5010908;28;20041;-80
2023/03/15 00:03:06;;;;;;;4.93;0.70;;;;;;;1.08;100.00;99919.94;5031865;28;20024;-79
2023/03/15 00:05:32;;;;;;;1.50;0.65;;;;;;;1.05;100.00;99920.75;5032718;28;20033;-79
2023/03/15 00:07:57;;;;;;;4.13;0.75;;;;;;;1.05;100.00;99920.75;5019922;28;20038;-78
2023/03/15 00:10:23;;;;;;;1.25;0.45;;;;;;;1.06;100.00;99927.69;5013306;28;20113;-78
2023/03/15 00:12:48;;;;;;;0.57;0.30;;;;;;;1.07;100.00;99931.16;5021683;28;20045;-79
2023/03/15 00:15:14;;;;;;;2.17;1.25;;;;;;;1.07;100.00;99944.16;5005283;28;20048;-79
2023/03/15 00:17:40;;;;;;;1.70;0.80;;;;;;;1.05;100.00;99938.06;5020004;28;20407;-78
2023/03/15 00:20:06;;;;;;;0.73;0.40;;;;;;;1.02;100.00;99941.47;5026661;28;20033;-78
2023/03/15 00:22:31;;;;;;;1.95;1.15;;;;;;;1.01;100.00;99944.03;5026991;28;20044;-79
2023/03/15 00:24:56;;;;;;;4.30;0.70;;;;;;;1.05;100.00;99945.84;5023639;28;20034;-79
2023/03/15 00:27:22;;;;;;;0.38;0.13;;;;;;;1.06;100.00;99942.41;5023039;28;20061;-79
2023/03/15 00:29:47;;;;;;;0.20;0.10;;;;;;;1.12;100.00;99944.25;5034928;28;20067;-78
2023/03/15 00:32:12;;;;;;;0.20;0.10;;;;;;;1.13;100.00;99954.69;5017687;28;20051;-79
2023/03/15 00:34:38;;;;;;;1.00;0.57;;;;;;;1.16;100.00;99959.97;5015189;28;20516;-80
2023/03/15 00:37:03;;;;;;;2.08;0.55;;;;;;;1.17;100.00;99959.13;5000639;28;20400;-79
2023/03/15 00:39:28;;;;;;;3.40;1.42;;;;;;;1.18;100.00;99973.88;5014580;28;20037;-79
2023/03/15 00:41:55;;;;;;;0.82;0.50;;;;;;;1.18;100.00;99968.69;5028733;28;20032;-80
2023/03/15 00:44:25;;;;;;;2.25;0.55;;;;;;;1.24;100.00;99968.81;5013915;28;20623;-79
2023/03/15 00:46:50;;;;;;;4.38;0.47;;;;;;;1.22;100.00;99970.50;4999938;28;20567;-79
2023/03/15 00:49:16;;;;;;;0.63;0.25;;;;;;;1.21;100.00;99968.75;5017068;28;20171;-79
2023/03/15 00:51:41;;;;;;;4.53;1.25;;;;;;;1.25;100.00;99974.88;5015879;28;20030;-79
2023/03/15 00:54:06;;;;;;;2.20;0.60;;;;;;;1.27;100.00;99979.28;5009911;28;20045;-79
2023/03/15 00:56:31;;;;;;;3.05;0.73;;;;;;;1.27;100.00;99979.28;5024382;28;20042;-79
2023/03/15 00:58:58;;;;;;;9.70;2.38;;;;;;;1.31;100.00;99975.91;5016178;28;20044;-79
2023/03/15 01:01:26;;;;;;;1.85;1.08;;;;;;;1.33;100.00;99982.84;5016644;28;20038;-79
2023/03/15 01:03:52;;;;;;;1.70;0.77;;;;;;;1.28;100.00;99988.84;5014144;28;20115;-79
2023/03/15 01:06:27;;;;;;;0.57;0.32;;;;;;;1.30;100.00;99988.84;5016142;28;20064;-79
2023/03/15 01:08:54;;;;;;;3.08;1.00;;;;;;;1.29;100.00;99987.13;5022877;28;20112;-79
2023/03/15 01:11:23;;;;;;;0.40;0.20;;;;;;;1.31;100.00;99988.03;5026154;28;20026;-79
2023/03/15 01:13:53;;;;;;;0.50;0.30;;;;;;;1.33;100.00;99993.25;5024211;28;20028;-79
2023/03/15 01:16:19;;;;;;;8.30;1.48;;;;;;;1.31;100.00;99995.84;5024299;28;20043;-79
2023/03/15 01:18:44;;;;;;;1.48;0.38;;;;;;;1.30;100.00;100000.13;5023558;28;20038;-79
2023/03/15 01:21:12;;;;;;;2.17;1.20;;;;;;;1.29;100.00;99997.53;5010465;28;20037;-79
2023/03/15 01:23:38;;;;;;;3.25;0.25;;;;;;;1.21;100.00;99999.94;5015579;28;20032;-79
2023/03/15 01:26:06;;;;;;;2.40;0.30;;;;;;;1.17;100.00;99995.50;5030033;28;20179;-79
2023/03/15 01:28:32;;;;;;;5.38;0.75;;;;;;;1.11;100.00;100000.56;5035126;28;20069;-78
2023/03/15 01:30:57;;;;;;;9.77;0.98;;;;;;;1.12;100.00;99989.31;5025509;28;20108;-79
2023/03/15 01:33:23;;;;;;;10.82;0.88;;;;;;;1.14;100.00;99997.16;5012875;28;20511;-79
2023/03/15 01:35:58;;;;;;;0.35;0.30;;;;;;;1.11;100.00;100003.16;5016036;28;20413;-79
2023/03/15 01:38:23;;;;;;;1.25;0.60;;;;;;;1.06;100.00;100008.25;5029858;28;20064;-79
2023/03/15 01:40:49;;;;;;;0.95;0.17;;;;;;;1.06;100.00;100010.84;5015378;28;20460;-79
2023/03/15 01:43:20;;;;;;;12.02;1.27;;;;;;;1.05;100.00;100008.22;5014730;28;20057;-78
2023/03/15 01:46:03;;;;;;;3.38;0.85;;;;;;;1.08;100.00;100014.38;5012160;28;20395;-78
2023/03/15 01:48:37;;;;;;;6.22;1.95;;;;;;;1.12;100.00;100019.63;5021358;28;20044;-78
2023/03/15 01:51:12;;;;;;;0.77;0.75;;;;;;;1.09;100.00;100015.25;5013369;28;20048;-78
2023/03/15 01:53:41;;;;;;;4.00;0.75;;;;;;;1.08;100.00;100021.28;4999043;28;20128;-78
2023/03/15 01:56:07;;;;;;;6.85;0.50;;;;;;;1.03;100.00;100013.38;5020791;28;20034;-78
2023/03/15 01:58:37;;;;;;;4.10;0.52;;;;;;;0.99;100.00;100027.13;5014975;28;20087;-78
2023/03/15 02:01:03;;;;;;;1.55;0.90;;;;;;;0.97;100.00;100030.53;5024374;28;20026;-78
2023/03/15 02:03:37;;;;;;;1.38;1.00;;;;;;;0.93;100.00;100023.50;5020266;28;20037;-78
2023/03/15 02:06:08;;;;;;;1.02;0.30;;;;;;;0.87;100.00;100030.31;5012775;28;20029;-78
2023/03/15 02:08:45;;;;;;;3.72;0.93;;;;;;;0.83;100.00;100022.41;5014690;28;20091;-78
2023/03/15 02:11:12;;;;;;;0.57;0.30;;;;;;;0.78;100.00;100024.00;5020256;28;20435;-78
2023/03/15 02:13:40;;;;;;;4.20;0.50;;;;;;;0.73;100.00;100029.06;5020540;28;20021;-78
2023/03/15 02:16:07;;;;;;;3.65;0.60;;;;;;;0.68;100.00;100030.69;5013431;28;20025;-78
2023/03/15 02:18:40;;;;;;;1.57;0.40;;;;;;;0.66;100.00;100032.38;5013760;28;20037;-77
2023/03/15 02:21:27;;;;;;;8.43;0.87;;;;;;;0.67;100.00;100036.72;5014257;28;20083;-77
2023/03/15 02:24:05;;;;;;;3.15;0.93;;;;;;;0.60;100.00;100037.38;5023698;28;20087;-78
2023/03/15 02:26:44;;;;;;;5.72;0.38;;;;;;;0.51;100.00;100045.84;5001673;28;20099;-78
2023/03/15 02:29:10;;;;;;;5.68;0.90;;;;;;;0.46;100.00;100043.97;5006664;28;20040;-78
2023/03/15 02:31:36;;;;;;;1.85;0.40;;;;;;;0.41;100.00;100044.69;5024125;28;20029;-78
2023/03/15 02:34:04;;;;;;;0.68;0.40;;;;;;;0.36;100.00;100051.47;5012847;28;20397;-78
2023/03/15 02:36:30;;;;;;;6.78;1.30;;;;;;;0.35;100.00;100060.13;5022170;28;20037;-78
2023/03/15 02:38:57;;;;;;;2.83;0.68;;;;;;;0.33;100.00;100061.78;5013166;28;20029;-78
2023/03/15 02:41:28;;;;;;;1.08;0.55;;;;;;;0.36;100.00;100056.69;5022226;28;20036;-78
2023/03/15 02:44:01;;;;;;;0.40;0.35;;;;;;;0.35;100.00;100064.44;5023380;28;20041;-77
2023/03/15 02:46:27;;;;;;;2.10;0.50;;;;;;;0.31;100.00;100058.25;5019186;28;20041;-78
2023/03/15 02:48:53;;;;;;;2.63;0.40;;;;;;;0.30;100.00;100066.03;5013137;28;20044;-78
2023/03/15 02:51:22;;;;;;;11.07;1.33;;;;;;;0.27;100.00;100073.72;5013631;28;20030;-77
2023/03/15 02:53:49;;;;;;;0.53;0.43;;;;;;;0.21;100.00;100069.25;5012724;28;20391;-78
2023/03/15 02:56:15;;;;;;;0.30;0.17;;;;;;;0.23;100.00;100070.16;5023657;28;20037;-78
2023/03/15 02:58:44;;;;;;;1.55;0.63;;;;;;;0.20;100.00;100077.84;5012522;28;20432;-78
2023/03/15 03:01:12;;;;;;;1.10;0.30;;;;;;;0.18;100.00;100071.75;5014824;28;20120;-78
2023/03/15 03:03:39;;;;;;;0.37;0.33;;;;;;;0.16;100.00;100076.91;5024886;28;20040;-78
2023/03/15 03:06:04;;;;;;;0.27;0.20;;;;;;;0.15;100.00;100089.81;5022966;28;20048;-78
2023/03/15 03:08:30;;;;;;;5.83;1.63;;;;;;;0.12;100.00;100087.16;5010665;28;20569;-78
2023/03/15 03:10:55;;;;;;;2.60;0.97;;;;;;;0.09;100.00;100089.66;5026586;28;20495;-78
2023/03/15 03:13:21;;;;;;;0.60;0.23;;;;;;;0.05;100.00;100091.25;5010562;28;20458;-77
2023/03/15 03:15:57;;;;;;;1.67;0.60;;;;;;;0.03;100.00;100092.06;5015196;28;20504;-78
2023/03/15 03:18:25;;;;;;;1.53;0.47;;;;;;;0.02;100.00;100098.09;5022658;28;20037;-78
2023/03/15 03:20:50;;;;;;;2.47;1.43;;;;;;;-0.01;100.00;100101.47;5012905;28;20037;-78
2023/03/15 03:23:16;;;;;;;1.03;0.70;;;;;;;-0.05;100.00;100097.91;5012160;28;20039;-78
2023/03/15 03:25:44;;;;;;;4.23;0.20;;;;;;;-0.09;100.00;100109.03;5011827;28;20092;-78
2023/03/15 03:28:09;;;;;;;5.67;1.10;;;;;;;-0.10;100.00;100112.47;5008714;28;20038;-78
2023/03/15 03:30:35;;;;;;;1.90;0.67;;;;;;;-0.10;100.00;100114.19;5023703;28;20040;-78
2023/03/15 03:33:01;;;;;;;3.63;0.57;;;;;;;-0.12;100.00;100121.03;5020514;28;20038;-78
2023/03/15 03:35:27;;;;;;;0.53;0.13;;;;;;;-0.10;100.00;100124.56;5011197;28;20040;-78
2023/03/15 03:37:54;;;;;;;7.17;0.70;;;;;;;-0.09;100.00;100122.00;5012680;28;20482;-78
2023/03/15 03:40:28;;;;;;;1.50;0.87;;;;;;;-0.12;100.00;100115.84;5005945;28;20053;-78
2023/03/15 03:42:53;;;;;;;1.10;0.20;;;;;;;-0.19;100.00;100119.94;5022859;28;20069;-77
2023/03/15 03:45:19;;;;;;;1.87;0.93;;;;;;;-0.20;100.00;100131.19;5012973;28;20060;-78
2023/03/15 03:47:47;;;;;;;1.70;0.50;;;;;;;-0.20;100.00;100135.50;5010733;28;20034;-77
2023/03/15 03:50:12;;;;;;;4.50;1.97;;;;;;;-0.21;100.00;100132.00;5011995;28;20080;-77
2023/03/15 03:52:38;;;;;;;2.73;0.40;;;;;;;-0.24;100.00;100134.50;5010796;28;20041;-77
2023/03/15 03:55:07;;;;;;;1.73;0.40;;;;;;;-0.24;100.00;100150.06;5015775;28;20061;-77
2023/03/15 03:57:33;;;;;;;7.53;0.53;;;;;;;-0.22;100.00;100143.22;5015352;28;20530;-78
2023/03/15 03:59:58;;;;;;;1.57;0.70;;;;;;;-0.25;100.00;100148.31;5018654;28;20029;-78
2023/03/15 04:02:24;;;;;;;3.17;1.57;;;;;;;-0.23;100.00;100152.72;5016223;28;20487;-80
2023/03/15 04:05:03;;;;;;;5.10;1.23;;;;;;;-0.24;100.00;100156.16;5017067;28;20041;-77
2023/03/15 04:07:28;;;;;;;0.43;0.30;;;;;;;-0.27;100.00;100165.53;5017233;28;20785;-78
2023/03/15 04:09:54;;;;;;;8.53;1.53;;;;;;;-0.28;100.00;100164.66;5016452;28;20128;-77
2023/03/15 04:12:19;;;;;;;1.10;0.97;;;;;;;-0.29;100.00;100167.19;5016434;28;20432;-77
2023/03/15 04:14:45;;;;;;;2.87;0.77;;;;;;;-0.33;100.00;100168.81;5013315;28;20456;-77
2023/03/15 04:17:11;;;;;;;1.70;0.90;;;;;;;-0.34;100.00;100184.31;5015990;28;20033;-77
2023/03/15 04:19:37;;;;;;;0.73;0.30;;;;;;;-0.34;100.00;100185.22;5013299;28;20048;-78
2023/03/15 04:22:06;;;;;;;2.73;0.77;;;;;;;-0.34;100.00;100181.72;5013960;28;20123;-78
2023/03/15 04:24:41;;;;;;;1.17;0.20;;;;;;;-0.29;100.00;100187.94;5014507;28;20117;-77
2023/03/15 04:27:25;;;;;;;1.87;0.53;;;;;;;-0.32;100.00;100193.03;5022127;28;20052;-78
2023/03/15 04:30:04;;;;;;;7.00;0.50;;;;;;;-0.29;100.00;100185.34;5028315;28;20045;-78
2023/03/15 04:32:57;;;;;;;4.77;1.10;;;;;;;-0.27;100.00;100191.47;5024253;28;20504;-77
2023/03/15 04:35:36;;;;;;;1.77;0.93;;;;;;;-0.27;100.00;100191.47;5026100;28;20037;-78
2023/03/15 04:38:18;;;;;;;3.30;0.43;;;;;;;-0.28;100.00;100194.91;5025362;28;20044;-77
2023/03/15 04:40:55;;;;;;;1.43;0.50;;;;;;;-0.28;100.00;100200.09;5012145;28;20026;-78
2023/03/15 04:43:34;;;;;;;5.73;0.70;;;;;;;-0.27;100.00;100196.66;5013334;28;20100;-78
2023/03/15 04:46:26;;;;;;;2.23;0.27;;;;;;;-0.29;100.00;100203.50;5019633;28;20045;-78
2023/03/15 04:49:21;;;;;;;3.80;0.63;;;;;;;-0.30;100.00;100207.81;4994872;28;20464;-77
2023/03/15 04:51:53;;;;;;;3.30;0.63;;;;;;;-0.30;100.00;100204.34;5013453;28;20227;-78
2023/03/15 04:54:48;;;;;;;2.47;0.53;;;;;;;-0.34;100.00;100205.97;5017155;28;20087;-77
2023/03/15 04:57:28;;;;;;;0.73;0.37;;;;;;;-0.29;100.00;100213.84;5012584;28;20036;-77
2023/03/15 05:00:07;;;;;;;5.43;1.20;;;;;;;-0.27;100.00;100213.06;5020981;28;20036;-78
2023/03/15 05:02:58;;;;;;;0.97;0.60;;;;;;;-0.31;100.00;100226.78;5012498;28;20701;-77
2023/03/15 05:05:37;;;;;;;1.47;0.63;;;;;;;-0.28;100.00;100223.44;5011602;28;20423;-77
2023/03/15 05:08:29;;;;;;;4.50;1.63;;;;;;;-0.31;100.00;100231.09;5026040;28;20472;-78
2023/03/15 05:11:11;;;;;;;2.33;0.33;;;;;;;-0.35;100.00;100232.69;5015593;28;20127;-78
2023/03/15 05:13:49;;;;;;;1.23;0.40;;;;;;;-0.35;100.00;100239.59;5011514;28;20437;-78
2023/03/15 05:16:39;;;;;;;6.43;1.03;;;;;;;-0.41;100.00;100236.81;5010440;28;20029;-78
2023/03/15 05:19:28;;;;;;;3.97;0.43;;;;;;;-0.36;100.00;100253.41;4978731;28;20042;-78
2023/03/15 05:21:56;;;;;;;4.80;0.53;;;;;;;-0.32;100.00;100250.06;5027792;28;20045;-77
2023/03/15 05:24:40;;;;;;;1.03;0.93;;;;;;;-0.30;100.00;100261.38;5030596;28;20092;-77
2023/03/15 05:27:41;;;;;;;6.23;2.57;;;;;;;-0.27;100.00;100251.09;5025855;28;20037;-78
2023/03/15 05:30:16;;;;;;;2.20;1.10;;;;;;;-0.23;100.00;100268.53;5016020;28;20057;-78
2023/03/15 05:33:03;;;;;;;2.97;0.50;;;;;;;-0.21;100.00;100259.06;5023764;28;20049;-78
2023/03/15 05:35:35;;;;;;;2.53;0.80;;;;;;;-0.19;100.00;100266.91;5023303;28;20046;-78
2023/03/15 05:38:07;;;;;;;1.85;0.75;;;;;;;-0.15;100.00;100269.69;5015035;28;20037;-79
2023/03/15 05:40:53;;;;;;;1.70;0.53;;;;;;;-0.13;100.00;100275.81;5010844;28;20630;-79
2023/03/15 05:43:37;;;;;;;2.00;0.47;;;;;;;-0.13;100.00;100275.81;5031027;28;20095;-78
2023/03/15 05:46:16;;;;;;;6.60;2.53;;;;;;;-0.09;100.00;100277.66;5012603;28;20060;-78
2023/03/15 05:48:55;;;;;;;2.83;0.70;;;;;;;-0.07;100.00;100288.09;5026241;28;20033;-77
2023/03/15 05:51:31;;;;;;;1.57;0.77;;;;;;;-0.05;100.00;100291.63;5014080;28;20057;-79
2023/03/15 05:54:07;;;;;;;8.87;1.53;;;;;;;-0.04;100.00;100298.56;5020766;28;20041;-77
2023/03/15 05:56:51;;;;;;;0.57;0.30;;;;;;;0.08;100.00;100306.75;5027307;28;20043;-78
2023/03/15 05:59:28;;;;;;;6.67;0.90;;;;;;;0.15;100.00;100307.81;5035630;28;20045;-78
2023/03/15 06:02:16;;;;;;;4.10;0.60;;;;;;;0.20;100.00;100317.50;5022346;28;20123;-78
2023/03/15 06:04:52;;;;;;;6.47;1.07;;;;;;;0.32;100.00;100313.56;5020758;28;20061;-78
2023/03/15 06:07:21;;;;;;;1.67;0.40;;;;;;;0.40;100.00;100323.34;5014296;28;20029;-78
2023/03/15 06:09:47;;;;;;;1.37;0.90;;;;;;;0.49;100.00;100329.66;5020586;28;20074;-78
2023/03/15 06:12:12;;;;;;;5.20;0.63;;;;;;;0.56;100.00;100327.28;5016821;28;20017;-78
2023/03/15 06:14:39;;;;;;;2.13;0.77;;;;;;;0.68;100.00;100326.78;5014186;28;20030;-78
2023/03/15 06:17:06;;;;;;;2.63;1.23;;;;;;;0.78;100.00;100325.34;5011429;28;20064;-78
2023/03/15 06:19:32;;;;;;;4.50;0.23;;;;;;;0.91;100.00;100342.19;5012580;28;20065;-78
2023/03/15 06:21:58;;;;;;;0.60;0.32;;;;;;;1.05;100.00;100331.38;5015028;28;20397;-78
2023/03/15 06:24:30;;;;;;;0.65;0.30;;;;;;;1.22;100.00;100333.56;5016580;28;20057;-77
2023/03/15 06:26:55;;;;;;;1.50;0.70;;;;;;;1.37;100.00;100333.13;5011252;28;20057;-78
2023/03/15 06:29:21;;;;;;;5.80;1.88;;;;;;;1.52;100.00;100337.00;5015055;28;20029;-79
2023/03/15 06:31:48;;;;;;;0.55;0.20;;;;;;;1.68;100.00;100340.91;5013895;28;20028;-77
2023/03/15 06:34:15;;;;;;;5.45;0.50;;;;;;;1.88;100.00;100345.75;5018947;28;20112;-78
2023/03/15 06:36:41;;;;;;;1.90;1.10;;;;;;;2.07;100.00;100350.59;5013190;28;20567;-78
2023/03/15 06:39:07;;;;;;;1.30;1.05;;;;;;;2.18;100.00;100359.53;5028637;28;20495;-78
2023/03/15 06:41:33;;;;;;;4.68;1.20;;;;;;;2.27;100.00;100353.69;5029061;28;20079;-78
2023/03/15 06:44:05;;;;;;;;;;;;;;;2.47;100.00;100361.97;5013307;28;20103;-78
2023/03/15 06:46:32;;;;;;;0.30;0.28;;;;;;;2.56;100.00;100356.97;5012519;28;19917;-78
2023/03/15 06:48:57;;;;;;;2.08;1.15;;;;;;;2.56;100.00;100367.38;4995777;28;20033;-78
2023/03/15 06:51:24;;;;;;;6.20;1.67;;;;;;;2.49;100.00;100370.72;5013921;28;20033;-78
2023/03/15 06:53:49;;;;;;;4.07;0.77;;;;;;;2.46;100.00;100373.22;5012064;28;20036;-78
2023/03/15 06:56:15;;;;;;;0.85;0.30;;;;;;;2.44;100.00;100376.63;5013446;28;20407;-78
2023/03/15 06:58:40;;;;;;;1.35;0.40;;;;;;;2.45;100.00;100379.28;5025255;28;20045;-78
2023/03/15 07:01:05;;;;;;;2.22;0.40;;;;;;;2.46;100.00;100380.16;5013320;28;20030;-78
2023/03/15 07:03:31;;;;;;;0.98;0.25;;;;;;;2.52;100.00;100385.53;5023898;28;20037;-78
2023/03/15 07:05:56;;;;;;;0.30;0.13;;;;;;;2.68;100.00;100379.84;5026278;28;20843;-78
2023/03/15 07:08:23;;;;;;;5.60;0.40;;;;;;;2.74;99.81;100387.78;5024018;28;20445;-78
2023/03/15 07:10:49;;;;;;;0.93;0.50;;;;;;;2.98;99.23;100391.81;5011073;28;20039;-78
2023/03/15 07:13:15;;;;;;;1.77;0.60;;;;;;;3.16;99.98;100388.72;5022747;28;20045;-78
2023/03/15 07:15:41;;;;;;;4.70;0.73;;;;;;;3.33;98.15;100400.41;5023736;28;20033;-78
2023/03/15 07:18:06;;;;;;;4.63;0.50;;;;;;;3.49;97.45;100397.25;5020618;28;20373;-78
2023/03/15 07:20:31;;;;;;;1.13;0.40;;;;;;;3.62;96.71;100398.38;5022410;28;20053;-78
2023/03/15 07:22:56;;;;;;;1.52;0.43;;;;;;;3.72;94.66;100394.19;5027140;28;20029;-78
2023/03/15 07:25:24;;;;;;;3.60;0.50;;;;;;;3.85;93.66;100397.94;5017638;28;20040;-78
2023/03/15 07:27:50;;;;;;;3.30;0.43;;;;;;;4.15;93.80;100402.84;5020146;28;20048;-78
2023/03/15 07:30:16;;;;;;;4.05;1.13;;;;;;;4.47;91.57;100412.97;5026898;28;20041;-78
2023/03/15 07:32:42;;;;;;;18.50;1.48;;;;;;;4.73;91.66;100406.41;5027455;28;20038;-78
2023/03/15 07:35:08;;;;;;;2.75;0.88;;;;;;;4.69;89.99;100399.41;5023978;28;20034;-79
2023/03/15 07:37:33;;;;;;;1.17;0.57;;;;;;;4.77;91.17;100402.16;4999904;28;20077;-78
2023/03/15 07:40:08;;;;;;;3.80;0.50;;;;;;;4.71;89.88;100409.88;5025625;28;20403;-77
2023/03/15 07:42:37;;;;;;;3.00;0.25;;;;;;;4.71;91.31;100402.03;5032159;28;20083;-79
2023/03/15 07:45:06;;;;;;;2.47;1.17;;;;;;;4.76;88.26;100406.47;5027426;28;20408;-77
2023/03/15 07:47:32;;;;;;;1.23;0.82;;;;;;;4.69;87.64;100424.66;5015800;28;20136;-78
2023/03/15 07:49:57;;;;;;;2.78;1.20;;;;;;;4.54;88.41;100420.06;5025913;28;20116;-78
2023/03/15 07:52:24;;;;;;;0.63;0.45;;;;;;;4.49;88.98;100429.56;5016758;28;20509;-79
2023/03/15 07:54:49;;;;;;;4.88;0.90;;;;;;;4.21;88.40;100464.78;5026715;28;20044;-77
2023/03/15 07:57:15;;;;;;;4.43;0.73;;;;;;;4.26;91.13;100435.25;5026959;28;20041;-78
2023/03/15 07:59:40;;;;;;;1.67;0.57;;;;;;;4.34;92.61;100438.88;5033398;28;20056;-79
2023/03/15 08:02:06;;;;;;;4.10;1.15;;;;;;;4.37;92.07;100443.28;5027640;28;20025;-78
2023/03/15 08:04:31;;;;;;;1.80;0.40;;;;;;;4.31;94.32;100454.50;5027181;28;20030;-78
2023/03/15 08:06:56;;;;;;;1.33;0.50;;;;;;;4.27;95.57;100457.94;5029297;28;20040;-78
2023/03/15 08:09:22;;;;;;;4.45;1.73;;;;;;;4.14;99.26;100458.56;5022590;28;20033;-78
2023/03/15 08:11:48;;;;;;;3.03;0.50;;;;;;;4.05;100.00;100466.22;5030657;28;20031;-78
2023/03/15 08:14:13;;;;;;;0.63;0.17;;;;;;;4.17;100.00;100461.22;5022676;28;20807;-79
2023/03/15 08:16:38;;;;;;;1.85;0.93;;;;;;;3.98;100.00;100462.59;5026397;28;20029;-78
2023/03/15 08:19:03;;;;;;;7.88;1.55;;;;;;;3.57;100.00;100477.44;5022274;28;20048;-78
2023/03/15 08:21:32;;;;;;;4.45;0.75;;;;;;;3.29;100.00;100492.47;5029400;28;20037;-78
2023/03/15 08:23:58;;;;;;;0.38;0.30;;;;;;;2.97;100.00;100494.34;5025701;28;20106;-77
2023/03/15 08:26:23;;;;;;;1.98;0.52;;;;;;;2.82;100.00;100495.72;5021672;28;20037;-78
2023/03/15 08:28:48;;;;;;;2.33;0.68;;;;;;;2.58;100.00;100495.09;5023677;28;20034;-78
2023/03/15 08:31:13;;;;;;;1.75;0.30;;;;;;;2.30;100.00;100496.09;5031369;28;20072;-78
2023/03/15 08:33:39;;;;;;;1.20;0.43;;;;;;;2.18;100.00;100494.94;5026886;28;20068;-78
2023/03/15 08:36:05;;;;;;;1.08;0.57;;;;;;;2.22;100.00;100508.03;5030453;28;20136;-78
2023/03/15 08:38:30;;;;;;;3.25;0.50;;;;;;;2.34;100.00;100508.38;5024172;28;20719;-78
2023/03/15 08:40:56;;;;;;;2.70;0.65;;;;;;;2.30;100.00;100510.00;5024966;28;20029;-79
2023/03/15 08:43:22;;;;;;;2.58;0.88;;;;;;;2.22;100.00;100518.47;5032753;28;20399;-78
2023/03/15 08:45:49;;;;;;;0.95;0.80;;;;;;;2.10;100.00;100512.09;5030624;28;20038;-78
2023/03/15 08:48:14;;;;;;;3.80;0.70;;;;;;;2.04;100.00;100516.22;5026564;28;20132;-79
2023/03/15 08:50:39;;;;;;;1.65;0.82;;;;;;;2.08;100.00;100513.75;5026140;28;20080;-79
2023/03/15 08:53:05;;;;;;;3.58;1.13;;;;;;;2.25;100.00;100518.53;5030204;28;20416;-77
2023/03/15 08:55:30;;;;;;;1.95;0.93;;;;;;;2.41;100.00;100523.31;5028255;28;20136;-79
2023/03/15 08:57:55;;;;;;;3.80;0.50;;;;;;;2.70;100.00;100518.88;5026112;28;20030;-78
2023/03/15 09:00:24;;;;;;;0.63;0.28;;;;;;;2.86;100.00;100527.97;5029123;28;20053;-78
2023/03/15 09:02:52;;;;;;;1999.90;999.90;;;;;;;2.83;100.00;100522.69;5033014;28;20041;-79
2023/03/15 09:05:19;;;;;;;1999.90;999.90;;;;;;;2.72;100.00;100519.78;5026766;28;20033;-78
2023/03/15 09:07:45;;;;;;;1999.90;999.90;;;;;;;2.77;100.00;100519.91;5023911;28;20044;-78
2023/03/15 09:10:13;;;;;;;1999.90;999.90;;;;;;;2.85;100.00;100520.97;5027897;28;20042;-79
2023/03/15 09:12:43;;;;;;;1999.90;999.90;;;;;;;2.84;100.00;100525.31;5032706;28;20161;-78
2023/03/15 09:15:10;;;;;;;1999.90;999.90;;;;;;;2.73;100.00;100526.78;5017576;28;20040;-79
2023/03/15 09:17:36;;;;;;;1999.90;999.90;;;;;;;2.58;100.00;100526.38;5028256;28;20033;-79
2023/03/15 09:20:06;;;;;;;1999.90;999.90;;;;;;;2.55;100.00;100548.03;5019966;28;20046;-79
2023/03/15 09:22:32;;;;;;;1999.90;999.90;;;;;;;2.44;100.00;100538.13;5016171;28;20093;-80
2023/03/15 09:24:57;;;;;;;1999.90;999.90;;;;;;;2.50;100.00;100539.19;5028130;28;20033;-78
2023/03/15 09:27:22;;;;;;;1999.90;999.90;;;;;;;2.71;100.00;100548.44;5019191;28;20049;-78
2023/03/15 09:29:48;;;;;;;1999.90;999.90;;;;;;;2.71;100.00;100548.44;5014095;28;20037;-78
2023/03/15 09:32:13;;;;;;;1999.90;999.90;;;;;;;2.88;100.00;100549.72;5026098;28;20037;-78
2023/03/15 09:34:39;;;;;;;1999.90;999.90;;;;;;;3.10;100.00;100542.44;5023588;28;20037;-78
2023/03/15 09:37:04;;;;;;;1999.90;999.90;;;;;;;3.18;100.00;100544.38;5007184;28;20042;-78
2023/03/15 09:39:32;;;;;;;1999.90;999.90;;;;;;;3.29;100.00;100549.84;5008682;28;20037;-78
2023/03/15 09:42:01;;;;;;;1999.90;999.90;;;;;;;3.33;100.00;100556.91;5023904;28;20037;-79
2023/03/15 09:44:32;;;;;;;1999.90;999.90;;;;;;;3.33;100.00;100556.00;5012600;28;20033;-78
2023/03/15 09:47:14;;;;;;;1999.90;999.90;;;;;;;3.57;100.00;100560.94;5025078;28;20033;-78
2023/03/15 09:50:04;;;;;;;1999.90;999.90;;;;;;;3.74;100.00;100559.56;5026316;28;20029;-79
2023/03/15 09:52:39;;;;;;;0.68;0.68;;;;;;;3.62;100.00;100565.41;5025893;28;20044;-79
2023/03/15 09:55:27;;;;;;;29.10;27.42;;;;;;;3.61;100.00;100561.03;5002882;28;20087;-78
2023/03/15 09:58:09;;;;;;;3.92;1.25;;;;;;;3.85;100.00;100562.41;5022364;28;20115;-79
2023/03/15 10:00:42;;;;;;;4.72;2.30;;;;;;;3.84;100.00;100558.94;5024858;28;20033;-79
2023/03/15 10:03:47;;;;;;;4.20;2.30;;;;;;;4.10;100.00;100550.75;5026682;28;20044;-78
2023/03/15 10:06:19;;;;;;;3.78;2.92;;;;;;;4.71;100.00;100558.88;5033113;28;20029;-78
2023/03/15 10:08:52;;;;;;;7.68;2.72;;;;;;;4.56;100.00;100570.84;5014562;28;20025;-78
2023/03/15 10:11:35;;;;;;;4.03;2.75;;;;;;;4.32;100.00;100555.56;5025776;28;20163;-79
2023/03/15 10:14:29;;;;;;;4.47;4.00;;;;;;;4.43;100.00;100561.00;5030808;28;20044;-78
2023/03/15 10:16:54;;;;;;;6.50;5.90;;;;;;;4.47;100.00;100569.78;5026545;28;20534;-79
2023/03/15 10:19:46;;;;;;;9.38;7.15;;;;;;;4.53;100.00;100569.88;5032334;28;20033;-79
2023/03/15 10:22:12;;;;;;;9.05;7.38;;;;;;;4.60;100.00;100556.09;5023559;28;20073;-79
2023/03/15 10:25:03;;;;;;;10.18;9.23;;;;;;;4.71;100.00;100564.13;5028257;28;20037;-79
2023/03/15 10:28:00;;;;;;;11.68;10.48;;;;;;;4.75;100.00;100558.97;5023746;28;20041;-79
2023/03/15 10:30:32;;;;;;;12.98;11.70;;;;;;;5.16;100.00;100558.81;5027253;28;20455;-79
2023/03/15 10:33:02;;;;;;;10.27;9.55;;;;;;;5.14;100.00;100550.06;5006652;28;20495;-79
2023/03/15 10:35:28;;;;;;;10.32;9.52;;;;;;;5.41;100.00;100564.44;5019851;28;20467;-79
2023/03/15 10:37:53;;;;;;;10.80;9.80;;;;;;;5.48;100.00;100567.16;5037950;28;20029;-79
2023/03/15 10:40:48;;;;;;;11.73;10.73;;;;;;;5.82;100.00;100557.19;5017671;28;20037;-79
2023/03/15 10:43:18;;;;;;;9.27;8.35;;;;;;;5.86;100.00;100561.56;5026298;28;20527;-79
2023/03/15 10:46:05;;;;;;;11.05;10.15;;;;;;;5.56;100.00;100577.75;5036394;28;20449;-79
2023/03/15 10:48:34;;;;;;;11.93;7.72;;;;;;;5.27;100.00;100564.22;5024156;28;20485;-79
2023/03/15 10:51:23;;;;;;;9.93;8.93;;;;;;;5.04;98.12;100574.31;5032383;28;20112;-78
2023/03/15 10:54:06;;;;;;;12.10;8.48;;;;;;;4.69;96.60;100577.19;5030968;28;20447;-79
2023/03/15 10:56:41;;;;;;;8.20;7.40;;;;;;;4.80;96.93;100578.25;5023424;28;20029;-79
2023/03/15 10:59:16;;;;;;;9.32;7.25;;;;;;;4.99;95.17;100568.97;5016481;28;20060;-79
2023/03/15 11:01:44;;;;;;;8.07;7.47;;;;;;;5.04;97.31;100563.84;5026782;28;20041;-79
2023/03/15 11:04:14;;;;;;;7.63;6.93;;;;;;;5.10;99.02;100568.28;5025097;28;20048;-78
2023/03/15 11:07:02;;;;;;;9.63;6.10;;;;;;;5.12;93.92;100557.00;5033717;28;20064;-79
2023/03/15 11:09:37;;;;;;;6.45;5.80;;;;;;;5.48;90.24;100576.75;5034950;28;20034;-78
2023/03/15 11:12:06;;;;;;;7.70;6.43;;;;;;;6.05;88.81;100564.47;5025955;28;20087;-79
2023/03/15 11:14:37;;;;;;;9.20;8.45;;;;;;;6.36;86.99;100555.25;5024347;28;20053;-79
2023/03/15 11:17:05;;;;;;;9.77;8.88;;;;;;;6.55;88.29;100551.97;5015660;28;20042;-80
2023/03/15 11:19:33;;;;;;;600.75;343.83;;;;;;;7.03;89.22;100547.16;5016550;28;20044;-81
2023/03/15 11:22:00;;;;;;;26.75;25.45;;;;;;;7.02;82.72;100554.19;5032913;28;20041;-80
2023/03/15 11:24:29;;;;;;;22.70;21.60;;;;;;;7.00;84.50;100553.28;5011537;28;20034;-79
2023/03/15 11:27:00;;;;;;;29.42;28.02;;;;;;;6.80;81.96;100562.69;5019418;28;20044;-80
2023/03/15 11:29:30;;;;;;;21.73;20.70;;;;;;;6.52;83.92;100561.53;5030269;28;20064;-79
2023/03/15 11:32:12;;;;;;;25.60;24.40;;;;;;;6.33;81.41;100577.06;5007953;28;20146;-79
2023/03/15 11:35:02;;;;;;;26.33;25.08;;;;;;;5.97;83.08;100580.09;5032328;28;20088;-79
2023/03/15 11:37:35;;;;;;;23.15;22.02;;;;;;;5.77;86.97;100573.69;5020228;28;20025;-79